createdAt,value
2023-01-07T00:01:51.308Z,8.26
2023-01-07T00:04:23.640Z,8.38
2023-01-07T00:06:52.871Z,8.36
2023-01-07T00:09:19.875Z,8.58
2023-01-07T00:11:51.700Z,8.58
2023-01-07T00:14:18.749Z,8.78
2023-01-07T00:16:45.800Z,8.58
2023-01-07T00:19:16.677Z,8.57
2023-01-07T00:21:45.729Z,8.64
2023-01-07T00:24:18.247Z,8.68
2023-01-07T00:26:45.490Z,8.52
2023-01-07T00:29:12.829Z,8.49
2023-01-07T00:31:44.302Z,8.40
2023-01-07T00:34:11.677Z,8.54
2023-01-07T00:36:46.773Z,8.62
2023-01-07T00:39:23.023Z,8.70
2023-01-07T00:42:09.558Z,8.66
2023-01-07T00:44:38.922Z,8.77
2023-01-07T00:47:08.510Z,8.63
2023-01-07T00:49:40.352Z,8.63
2023-01-07T00:52:07.250Z,8.71
2023-01-07T00:54:34.725Z,8.82
2023-01-07T00:57:01.904Z,8.93
2023-01-07T00:59:28.841Z,8.62
2023-01-07T01:01:56.397Z,8.57
2023-01-07T01:04:23.523Z,8.62
2023-01-07T01:06:53.120Z,8.62
2023-01-07T01:09:21.608Z,8.71
2023-01-07T01:11:48.808Z,8.65
2023-01-07T01:14:17.825Z,8.71
2023-01-07T01:16:47.288Z,8.68
2023-01-07T01:19:17.351Z,8.84
2023-01-07T01:21:47.350Z,8.93
2023-01-07T01:24:14.210Z,9.00
2023-01-07T01:26:43.310Z,8.87
2023-01-07T01:29:12.727Z,9.01
2023-01-07T01:31:39.907Z,8.98
2023-01-07T01:34:06.779Z,8.97
2023-01-07T01:36:33.765Z,9.03
2023-01-07T01:39:00.998Z,9.06
2023-01-07T01:41:28.047Z,9.17
2023-01-07T01:43:57.151Z,9.05
2023-01-07T01:46:44.422Z,8.98
2023-01-07T01:49:36.598Z,9.09
2023-01-07T01:52:13.239Z,9.09
2023-01-07T01:54:48.085Z,8.90
2023-01-07T01:57:17.112Z,8.97
2023-01-07T01:59:50.611Z,8.86
2023-01-07T02:02:26.496Z,8.88
2023-01-07T02:04:55.282Z,8.92
2023-01-07T02:07:22.375Z,8.96
2023-01-07T02:10:21.039Z,9.03
2023-01-07T02:13:06.379Z,9.18
2023-01-07T02:15:45.213Z,9.15
2023-01-07T02:18:49.353Z,9.07
2023-01-07T02:22:23.753Z,8.99
2023-01-07T02:25:09.133Z,9.16
2023-01-07T02:27:53.282Z,9.30
2023-01-07T02:30:56.811Z,9.35
2023-01-07T02:33:52.535Z,9.45
2023-01-07T02:36:58.415Z,9.38
2023-01-07T02:39:43.364Z,9.44
2023-01-07T02:42:28.918Z,9.46
2023-01-07T02:45:39.383Z,9.37
2023-01-07T02:48:10.046Z,9.30
2023-01-07T02:50:38.945Z,9.30
2023-01-07T02:53:10.863Z,9.43
2023-01-07T02:56:14.594Z,9.40
2023-01-07T02:59:50.244Z,9.44
2023-01-07T03:02:30.959Z,9.58
2023-01-07T03:05:21.281Z,9.73
2023-01-07T03:08:03.039Z,9.81
2023-01-07T03:10:40.913Z,9.83
2023-01-07T03:13:17.906Z,9.87
2023-01-07T03:16:04.760Z,9.83
2023-01-07T03:18:55.950Z,9.89
2023-01-07T03:21:29.832Z,9.98
2023-01-07T03:23:58.692Z,10.11
2023-01-07T03:26:32.739Z,10.07
2023-01-07T03:29:02.160Z,10.18
2023-01-07T03:31:30.907Z,10.32
2023-01-07T03:34:09.648Z,10.44
2023-01-07T03:36:49.212Z,10.42
2023-01-07T03:39:20.288Z,10.40
2023-01-07T03:42:11.676Z,10.55
2023-01-07T03:44:42.400Z,10.61
2023-01-07T03:47:12.436Z,10.74
2023-01-07T03:49:39.980Z,10.62
2023-01-07T03:52:06.973Z,10.83
2023-01-07T03:54:36.549Z,10.80
2023-01-07T03:57:05.955Z,10.87
2023-01-07T03:59:32.819Z,10.66
2023-01-07T04:02:02.462Z,10.74
2023-01-07T04:04:32.442Z,10.80
2023-01-07T04:06:59.491Z,10.96
2023-01-07T04:09:26.467Z,11.02
2023-01-07T04:11:53.641Z,10.84
2023-01-07T04:14:20.504Z,10.89
2023-01-07T04:16:47.525Z,10.90
2023-01-07T04:19:14.510Z,10.98
2023-01-07T04:21:41.327Z,10.95
2023-01-07T04:24:10.857Z,11.00
2023-01-07T04:26:37.692Z,11.18
2023-01-07T04:29:04.586Z,11.13
2023-01-07T04:31:33.739Z,11.18
2023-01-07T04:34:05.559Z,11.11
2023-01-07T04:36:32.450Z,11.11
2023-01-07T04:38:59.267Z,11.24
2023-01-07T04:41:26.196Z,11.24
2023-01-07T04:43:53.047Z,11.19
2023-01-07T04:46:19.987Z,11.27
2023-01-07T04:48:46.892Z,11.40
2023-01-07T04:51:13.805Z,11.13
2023-01-07T04:53:43.278Z,11.35
2023-01-07T04:56:10.077Z,11.32
2023-01-07T04:58:37.108Z,11.47
2023-01-07T05:01:09.134Z,11.64
2023-01-07T05:03:39.161Z,11.47
2023-01-07T05:06:09.396Z,11.54
2023-01-07T05:08:36.264Z,11.42
2023-01-07T05:11:05.880Z,11.62
2023-01-07T05:13:38.241Z,11.29
2023-01-07T05:16:07.779Z,11.24
2023-01-07T05:18:34.596Z,11.47
2023-01-07T05:21:01.506Z,11.44
2023-01-07T05:23:28.353Z,11.41
2023-01-07T05:25:57.446Z,11.29
2023-01-07T05:28:24.396Z,11.27
2023-01-07T05:30:53.768Z,11.27
2023-01-07T05:33:23.286Z,11.35
2023-01-07T05:35:52.698Z,11.76
2023-01-07T05:38:21.812Z,11.59
2023-01-07T05:40:49.992Z,11.65
2023-01-07T05:43:21.390Z,11.65
2023-01-07T05:45:50.786Z,11.85
2023-01-07T05:48:17.682Z,11.72
2023-01-07T05:50:44.492Z,11.81
2023-01-07T05:53:13.665Z,11.74
2023-01-07T05:55:45.072Z,11.87
2023-01-07T05:58:12.012Z,11.85
2023-01-07T06:00:39.017Z,11.82
2023-01-07T06:03:08.431Z,11.93
2023-01-07T06:05:35.403Z,11.80
2023-01-07T06:08:02.317Z,12.20
2023-01-07T06:10:29.368Z,12.23
2023-01-07T06:12:56.330Z,12.02
2023-01-07T06:15:23.328Z,11.94
2023-01-07T06:17:53.461Z,11.78
2023-01-07T06:20:22.981Z,11.69
2023-01-07T06:22:50.459Z,11.99
2023-01-07T06:25:17.475Z,12.02
2023-01-07T06:27:47.301Z,12.18
2023-01-07T06:30:14.339Z,12.27
2023-01-07T06:32:43.470Z,12.25
2023-01-07T06:35:14.416Z,12.11
2023-01-07T06:37:41.457Z,12.26
2023-01-07T06:40:12.431Z,12.03
2023-01-07T06:42:39.598Z,12.15
2023-01-07T06:45:07.198Z,12.13
2023-01-07T06:47:34.346Z,11.81
2023-01-07T06:50:04.640Z,11.88
2023-01-07T06:52:31.551Z,11.88
2023-01-07T06:54:58.544Z,12.03
2023-01-07T06:57:25.554Z,12.02
2023-01-07T06:59:54.744Z,12.15
2023-01-07T07:02:25.810Z,11.96
2023-01-07T07:04:53.238Z,11.97
2023-01-07T07:07:20.773Z,11.87
2023-01-07T07:09:48.250Z,11.86
2023-01-07T07:12:15.301Z,11.96
2023-01-07T07:14:44.487Z,11.89
2023-01-07T07:17:11.541Z,12.18
2023-01-07T07:19:38.505Z,12.21
2023-01-07T07:22:05.405Z,12.38
2023-01-07T07:24:32.366Z,12.49
2023-01-07T07:27:00.230Z,12.45
2023-01-07T07:29:31.824Z,12.50
2023-01-07T07:31:58.880Z,12.30
2023-01-07T07:34:28.237Z,12.31
2023-01-07T07:36:55.111Z,12.28
2023-01-07T07:39:24.059Z,12.34
2023-01-07T07:41:50.948Z,12.51
2023-01-07T07:44:20.746Z,12.26
2023-01-07T07:46:47.672Z,12.18
2023-01-07T07:49:16.935Z,12.42
2023-01-07T07:51:44.055Z,12.26
2023-01-07T07:54:12.971Z,12.23
2023-01-07T07:56:44.419Z,12.25
2023-01-07T07:59:11.456Z,12.36
2023-01-07T08:01:40.845Z,12.43
2023-01-07T08:04:07.875Z,12.56
2023-01-07T08:06:37.203Z,12.43
2023-01-07T08:09:04.195Z,12.47
2023-01-07T08:11:33.279Z,12.54
2023-01-07T08:14:02.972Z,12.58
2023-01-07T08:16:34.539Z,12.84
2023-01-07T08:19:01.422Z,12.39
2023-01-07T08:21:31.024Z,12.65
2023-01-07T08:23:57.945Z,12.65
2023-01-07T08:26:24.948Z,12.52
2023-01-07T08:28:52.000Z,12.57
2023-01-07T08:31:19.041Z,12.67
2023-01-07T08:33:48.362Z,12.60
2023-01-07T08:36:23.513Z,12.51
2023-01-07T08:38:55.305Z,12.67
2023-01-07T08:41:24.220Z,12.68
2023-01-07T08:43:51.618Z,12.53
2023-01-07T08:46:18.531Z,12.47
2023-01-07T08:48:45.443Z,12.67
2023-01-07T08:51:14.939Z,12.72
2023-01-07T08:53:41.933Z,12.83
2023-01-07T08:56:09.077Z,12.66
2023-01-07T08:58:35.949Z,12.66
2023-01-07T09:01:05.768Z,12.75
2023-01-07T09:03:35.395Z,12.73
2023-01-07T09:06:02.399Z,12.70
2023-01-07T09:08:29.261Z,12.67
2023-01-07T09:10:56.317Z,12.85
2023-01-07T09:13:25.486Z,12.95
2023-01-07T09:15:53.193Z,12.85
2023-01-07T09:18:20.947Z,12.98
2023-01-07T09:20:47.895Z,13.14
2023-01-07T09:23:17.792Z,13.43
2023-01-07T09:25:46.873Z,13.41
2023-01-07T09:28:13.720Z,13.76
2023-01-07T09:30:40.643Z,13.83
2023-01-07T09:33:09.990Z,13.94
2023-01-07T09:35:37.038Z,13.80
2023-01-07T09:38:06.162Z,13.88
2023-01-07T09:40:39.221Z,14.08
2023-01-07T09:43:21.196Z,14.63
2023-01-07T09:45:53.298Z,15.41
2023-01-07T09:48:39.755Z,15.42
2023-01-07T09:51:20.038Z,15.42
2023-01-07T09:53:53.869Z,14.97
2023-01-07T09:56:24.544Z,14.69
2023-01-07T09:58:52.041Z,14.76
2023-01-07T10:01:44.873Z,15.03
2023-01-07T10:04:42.257Z,16.02
2023-01-07T10:08:31.188Z,15.71
2023-01-07T10:10:57.456Z,17.24
2023-01-07T10:14:03.807Z,20.23
2023-01-07T10:16:49.166Z,21.82
2023-01-07T10:19:43.588Z,21.65
2023-01-07T10:22:23.362Z,19.81
2023-01-07T10:24:59.165Z,18.02
2023-01-07T10:27:47.059Z,17.63
2023-01-07T10:30:23.346Z,18.19
2023-01-07T10:32:59.328Z,17.21
2023-01-07T10:35:30.289Z,16.32
2023-01-07T10:38:04.807Z,16.04
2023-01-07T10:40:42.812Z,15.61
2023-01-07T10:43:50.063Z,15.29
2023-01-07T10:46:53.091Z,14.91
2023-01-07T10:49:40.996Z,14.87
2023-01-07T10:52:34.417Z,14.49
2023-01-07T10:55:37.760Z,14.02
2023-01-07T10:58:07.349Z,13.72
2023-01-07T11:00:34.255Z,14.00
2023-01-07T11:03:03.686Z,14.46
2023-01-07T11:05:39.061Z,14.30
2023-01-07T11:08:26.411Z,14.84
2023-01-07T11:10:53.637Z,14.88
2023-01-07T11:13:29.702Z,14.77
2023-01-07T11:16:10.264Z,14.90
2023-01-07T11:18:55.732Z,14.66
2023-01-07T11:21:48.929Z,14.62
2023-01-07T11:24:36.485Z,14.74
2023-01-07T11:27:16.559Z,14.50
2023-01-07T11:29:46.184Z,14.32
2023-01-07T11:32:38.392Z,14.29
2023-01-07T11:35:22.732Z,13.86
2023-01-07T11:37:52.627Z,14.17
2023-01-07T11:40:23.787Z,13.77
2023-01-07T11:42:54.412Z,13.37
2023-01-07T11:45:27.407Z,13.32
2023-01-07T11:48:06.214Z,13.60
2023-01-07T11:50:41.196Z,13.74
2023-01-07T11:53:16.170Z,13.58
2023-01-07T11:56:07.704Z,13.15
2023-01-07T11:58:39.864Z,13.42
2023-01-07T12:01:12.478Z,13.55
2023-01-07T12:03:53.968Z,13.41
2023-01-07T12:06:27.118Z,13.29
2023-01-07T12:09:26.099Z,13.47
2023-01-07T12:11:56.754Z,13.61
2023-01-07T12:14:34.859Z,13.49
2023-01-07T12:17:19.357Z,13.42
2023-01-07T12:20:21.387Z,13.47
2023-01-07T12:23:32.633Z,13.61
2023-01-07T12:26:11.938Z,13.50
2023-01-07T12:29:08.558Z,13.31
2023-01-07T12:32:20.312Z,13.05
2023-01-07T12:34:55.917Z,13.25
2023-01-07T12:37:37.297Z,13.13
2023-01-07T12:40:19.166Z,12.94
2023-01-07T12:43:03.259Z,12.92
2023-01-07T12:45:42.722Z,12.93
2023-01-07T12:48:23.660Z,12.86
2023-01-07T12:50:55.255Z,13.14
2023-01-07T12:53:49.098Z,13.49
2023-01-07T12:56:34.797Z,13.67
2023-01-07T12:59:55.853Z,13.57
2023-01-07T13:02:48.212Z,13.44
2023-01-07T13:05:38.516Z,13.60
2023-01-07T13:08:40.861Z,13.53
2023-01-07T13:12:03.999Z,13.30
2023-01-07T13:14:46.137Z,13.41
2023-01-07T13:17:28.314Z,13.48
2023-01-07T13:19:58.273Z,13.39
2023-01-07T13:22:33.953Z,13.43
2023-01-07T13:25:28.177Z,13.49
2023-01-07T13:28:07.579Z,13.65
2023-01-07T13:31:01.896Z,13.46
2023-01-07T13:33:40.443Z,13.73
2023-01-07T13:36:27.034Z,13.57
2023-01-07T13:39:15.382Z,13.72
2023-01-07T13:42:19.299Z,13.61
2023-01-07T13:45:01.908Z,13.51
2023-01-07T13:47:47.432Z,13.40
2023-01-07T13:50:20.568Z,13.40
2023-01-07T13:53:02.012Z,13.37
2023-01-07T13:55:32.434Z,13.22
2023-01-07T13:57:59.398Z,13.23
2023-01-07T14:00:48.398Z,13.47
2023-01-07T14:03:27.359Z,13.32
2023-01-07T14:06:21.900Z,13.58
2023-01-07T14:08:51.348Z,13.50
2023-01-07T14:11:44.312Z,13.34
2023-01-07T14:14:22.387Z,13.38
2023-01-07T14:17:11.846Z,13.34
2023-01-07T14:20:24.034Z,13.75
2023-01-07T14:23:34.337Z,13.67
2023-01-07T14:26:18.218Z,13.41
2023-01-07T14:29:12.868Z,13.32
2023-01-07T14:31:39.880Z,13.38
2023-01-07T14:34:17.923Z,13.40
2023-01-07T14:37:05.047Z,13.32
2023-01-07T14:39:34.978Z,13.35
2023-01-07T14:42:43.559Z,13.50
2023-01-07T14:45:41.572Z,13.42
2023-01-07T14:48:08.624Z,13.32
2023-01-07T14:50:57.202Z,13.14
2023-01-07T14:53:57.090Z,13.30
2023-01-07T14:56:34.695Z,13.43
2023-01-07T14:59:32.751Z,13.28
2023-01-07T15:02:33.801Z,13.38
2023-01-07T15:05:43.783Z,13.11
2023-01-07T15:08:37.836Z,13.05
2023-01-07T15:11:32.074Z,13.03
2023-01-07T15:14:37.051Z,13.14
2023-01-07T15:17:07.206Z,12.95
2023-01-07T15:19:41.208Z,12.94
2023-01-07T15:22:35.400Z,12.53
2023-01-07T15:25:09.843Z,12.78
2023-01-07T15:28:06.846Z,12.65
2023-01-07T15:30:55.562Z,12.68
2023-01-07T15:33:48.464Z,12.68
2023-01-07T15:36:16.322Z,12.77
2023-01-07T15:38:54.165Z,12.84
2023-01-07T15:41:28.870Z,12.92
2023-01-07T15:43:59.341Z,13.12
2023-01-07T15:46:29.675Z,12.95
2023-01-07T15:49:08.402Z,13.12
2023-01-07T15:51:41.706Z,13.09
2023-01-07T15:54:31.859Z,12.94
2023-01-07T15:57:13.129Z,13.06
2023-01-07T15:59:48.038Z,12.71
2023-01-07T16:02:42.750Z,12.85
2023-01-07T16:05:10.779Z,12.60
2023-01-07T16:08:03.155Z,12.85
2023-01-07T16:10:36.569Z,13.07
2023-01-07T16:13:20.850Z,12.73
2023-01-07T16:15:58.562Z,12.73
2023-01-07T16:18:25.486Z,12.83
2023-01-07T16:21:12.901Z,12.65
2023-01-07T16:23:40.861Z,12.57
2023-01-07T16:26:19.711Z,12.53
2023-01-07T16:28:56.866Z,12.60
2023-01-07T16:31:26.510Z,12.65
2023-01-07T16:33:57.430Z,12.59
2023-01-07T16:36:30.526Z,12.61
2023-01-07T16:39:03.885Z,12.65
2023-01-07T16:41:31.712Z,12.69
2023-01-07T16:44:04.408Z,12.63
2023-01-07T16:46:35.985Z,12.73
2023-01-07T16:49:21.253Z,12.61
2023-01-07T16:51:52.762Z,12.77
2023-01-07T16:54:25.725Z,12.70
2023-01-07T16:56:56.974Z,12.72
2023-01-07T16:59:38.373Z,12.63
2023-01-07T17:02:40.646Z,12.44
2023-01-07T17:05:33.724Z,12.53
2023-01-07T17:08:05.762Z,12.40
2023-01-07T17:10:37.735Z,12.52
2023-01-07T17:13:33.472Z,12.57
2023-01-07T17:16:36.823Z,12.40
2023-01-07T17:19:26.080Z,12.39
2023-01-07T17:21:54.527Z,12.30
2023-01-07T17:24:46.215Z,12.23
2023-01-07T17:27:29.849Z,12.41
2023-01-07T17:29:56.928Z,12.10
2023-01-07T17:32:26.044Z,12.01
2023-01-07T17:34:57.653Z,11.85
2023-01-07T17:37:24.577Z,11.99
2023-01-07T17:39:53.884Z,12.04
2023-01-07T17:42:50.347Z,11.75
2023-01-07T17:45:19.918Z,11.73
2023-01-07T17:47:49.593Z,11.82
2023-01-07T17:50:24.322Z,11.78
2023-01-07T17:52:55.899Z,11.81
2023-01-07T17:55:30.435Z,11.85
2023-01-07T17:58:02.332Z,11.75
2023-01-07T18:00:33.072Z,11.83
2023-01-07T18:03:00.060Z,11.69
2023-01-07T18:05:27.304Z,11.79
2023-01-07T18:07:54.264Z,12.03
2023-01-07T18:10:28.685Z,12.08
2023-01-07T18:12:55.521Z,12.02
2023-01-07T18:15:27.242Z,11.98
2023-01-07T18:17:58.675Z,11.86
2023-01-07T18:20:30.114Z,12.09
2023-01-07T18:22:56.964Z,12.11
2023-01-07T18:25:23.987Z,12.10
2023-01-07T18:27:53.337Z,11.99
2023-01-07T18:30:21.998Z,11.58
2023-01-07T18:32:51.238Z,11.14
2023-01-07T18:35:22.629Z,11.24
2023-01-07T18:37:50.394Z,11.25
2023-01-07T18:40:19.890Z,11.16
2023-01-07T18:42:47.235Z,11.13
2023-01-07T18:45:16.744Z,11.20
2023-01-07T18:47:43.755Z,11.27
2023-01-07T18:50:16.167Z,11.25
2023-01-07T18:52:45.733Z,11.49
2023-01-07T18:55:19.324Z,11.45
2023-01-07T18:57:49.215Z,11.39
2023-01-07T19:00:16.955Z,11.38
2023-01-07T19:02:46.285Z,11.52
2023-01-07T19:05:13.615Z,11.19
2023-01-07T19:07:41.457Z,11.41
2023-01-07T19:10:11.635Z,11.23
2023-01-07T19:12:38.776Z,11.31
2023-01-07T19:15:06.645Z,11.23
2023-01-07T19:17:38.373Z,11.26
2023-01-07T19:20:06.465Z,11.27
2023-01-07T19:22:34.443Z,11.42
2023-01-07T19:25:01.806Z,11.26
2023-01-07T19:27:28.874Z,11.37
2023-01-07T19:29:55.911Z,11.29
2023-01-07T19:32:22.883Z,11.44
2023-01-07T19:34:52.385Z,11.54
2023-01-07T19:37:22.519Z,11.42
2023-01-07T19:39:52.695Z,11.36
2023-01-07T19:42:19.722Z,11.55
2023-01-07T19:44:49.254Z,11.53
2023-01-07T19:47:18.748Z,11.56
2023-01-07T19:49:45.748Z,11.40
2023-01-07T19:52:13.785Z,11.57
2023-01-07T19:54:41.781Z,11.40
2023-01-07T19:57:11.370Z,11.28
2023-01-07T19:59:40.437Z,11.24
2023-01-07T20:02:07.836Z,11.32
2023-01-07T20:04:34.934Z,11.24
2023-01-07T20:07:02.119Z,11.37
2023-01-07T20:09:29.045Z,11.50
2023-01-07T20:11:55.856Z,11.31
2023-01-07T20:14:22.762Z,11.35
2023-01-07T20:16:49.642Z,11.01
2023-01-07T20:19:18.399Z,10.91
2023-01-07T20:21:46.730Z,10.81
2023-01-07T20:24:16.136Z,11.01
2023-01-07T20:26:43.205Z,11.14
2023-01-07T20:29:10.053Z,10.98
2023-01-07T20:31:40.095Z,11.04
2023-01-07T20:34:07.192Z,11.15
2023-01-07T20:36:36.377Z,10.97
2023-01-07T20:39:06.475Z,10.93
2023-01-07T20:41:36.028Z,11.03
2023-01-07T20:44:08.648Z,11.08
2023-01-07T20:46:35.613Z,11.05
2023-01-07T20:49:05.322Z,10.94
2023-01-07T20:51:32.283Z,10.97
2023-01-07T20:54:01.743Z,10.91
2023-01-07T20:56:32.667Z,10.79
2023-01-07T20:59:01.187Z,10.88
2023-01-07T21:01:30.731Z,10.75
2023-01-07T21:03:58.322Z,10.73
2023-01-07T21:06:25.703Z,10.61
2023-01-07T21:08:56.933Z,10.72
2023-01-07T21:11:29.720Z,10.92
2023-01-07T21:13:56.887Z,10.77
2023-01-07T21:16:28.408Z,10.94
2023-01-07T21:18:58.207Z,10.73
2023-01-07T21:21:25.725Z,10.84
2023-01-07T21:23:54.256Z,10.86
2023-01-07T21:26:23.944Z,10.61
2023-01-07T21:28:55.952Z,10.87
2023-01-07T21:31:23.674Z,11.08
2023-01-07T21:33:56.876Z,10.85
2023-01-07T21:36:25.906Z,11.02
2023-01-07T21:38:59.213Z,10.70
2023-01-07T21:41:28.275Z,10.79
2023-01-07T21:43:56.558Z,10.91
2023-01-07T21:46:23.950Z,10.77
2023-01-07T21:48:51.976Z,10.67
2023-01-07T21:51:25.713Z,10.90
2023-01-07T21:53:57.831Z,10.83
2023-01-07T21:56:28.668Z,10.65
2023-01-07T21:58:55.650Z,10.73
2023-01-07T22:01:28.489Z,10.70
2023-01-07T22:04:00.531Z,10.78
2023-01-07T22:06:33.794Z,10.71
2023-01-07T22:09:08.185Z,10.63
2023-01-07T22:11:41.447Z,10.59
2023-01-07T22:14:13.868Z,10.72
2023-01-07T22:16:40.949Z,10.65
2023-01-07T22:19:09.955Z,10.56
2023-01-07T22:21:37.221Z,10.53
2023-01-07T22:24:04.863Z,10.53
2023-01-07T22:26:36.431Z,10.44
2023-01-07T22:29:07.678Z,10.52
2023-01-07T22:31:37.103Z,10.81
2023-01-07T22:34:06.398Z,10.48
2023-01-07T22:37:07.392Z,10.59
2023-01-07T22:39:44.422Z,10.66
2023-01-07T22:42:34.842Z,10.54
2023-01-07T22:45:16.585Z,10.83
2023-01-07T22:47:49.034Z,10.63
2023-01-07T22:50:17.346Z,10.53
2023-01-07T22:52:44.633Z,10.67
2023-01-07T22:55:14.180Z,10.58
2023-01-07T22:57:42.011Z,10.65
2023-01-07T23:00:41.369Z,10.57
2023-01-07T23:03:10.849Z,10.76
2023-01-07T23:05:39.900Z,10.66
2023-01-07T23:08:07.475Z,10.71
2023-01-07T23:10:39.970Z,10.68
2023-01-07T23:13:07.644Z,10.75
2023-01-07T23:15:36.601Z,10.54
2023-01-07T23:18:12.147Z,10.58
2023-01-07T23:20:43.280Z,10.78
2023-01-07T23:23:11.882Z,10.64
2023-01-07T23:25:49.275Z,10.68
2023-01-07T23:28:18.057Z,10.85
2023-01-07T23:30:45.345Z,10.89
2023-01-07T23:33:14.707Z,10.82
2023-01-07T23:35:41.683Z,10.84
2023-01-07T23:38:11.084Z,10.68
2023-01-07T23:40:38.231Z,10.48
2023-01-07T23:43:05.159Z,10.64
2023-01-07T23:45:32.269Z,10.51
2023-01-07T23:48:01.941Z,10.31
2023-01-07T23:50:29.091Z,10.40
2023-01-07T23:52:58.624Z,10.33
2023-01-07T23:55:28.106Z,10.40
2023-01-07T23:57:57.615Z,10.42
